Time;durP1;ratioP1;P1;durP2;ratioP2;P2;SDS_P1;SDS_P2;PMS_P1;PMS_P2;Temp;Humidity;BMP_temperature;BMP_pressure;BME280_temperature;BME280_humidity;BME280_pressure;Samples;Min_cycle;Max_cycle;Signal;HPM_P1;HPM_P2
2022/11/08 00:01:32;;;;;;;;;;;11.50;99.90;;;;;;5041618;28;19971;-75
2022/11/08 00:03:58;;;;;;;;;;;11.40;99.90;;;;;;5051431;28;19920;-75
2022/11/08 00:14:36;;;;;;;;;;;11.30;99.90;;;;;;5053224;28;19967;-75
2022/11/08 00:17:02;;;;;;;;;;;11.20;99.90;;;;;;5041999;28;19917;-75
2022/11/08 00:19:27;;;;;;;;;;;11.20;99.90;;;;;;5045617;28;20360;-74
2022/11/08 00:21:52;;;;;;;;;;;11.10;99.90;;;;;;5040047;28;19928;-75
2022/11/08 00:24:18;;;;;;;;;;;11.10;99.90;;;;;;5046485;28;20367;-75
2022/11/08 00:26:43;;;;;;;;;;;11.00;99.90;;;;;;5046372;28;19959;-75
2022/11/08 00:29:08;;;;;;;;;;;10.90;99.90;;;;;;5044928;28;19919;-75
2022/11/08 00:31:34;;;;;;;;;;;10.80;99.90;;;;;;5046232;28;19912;-75
2022/11/08 00:33:59;;;;;;;;;;;10.90;99.90;;;;;;5062221;28;20363;-75
2022/11/08 00:36:25;;;;;;;;;;;10.80;99.90;;;;;;5049599;28;20351;-75
2022/11/08 00:38:50;;;;;;;;;;;10.80;99.90;;;;;;5046748;28;19928;-74
2022/11/08 00:41:15;;;;;;;;;;;10.80;99.90;;;;;;5048374;28;20347;-75
2022/11/08 00:43:41;;;;;;;;;;;10.80;99.90;;;;;;5050573;28;19956;-75
2022/11/08 00:46:06;;;;;;;;;;;11.00;99.90;;;;;;5048340;28;20012;-75
2022/11/08 00:48:32;;;;;;;;;;;11.00;99.90;;;;;;5048288;28;19927;-75
2022/11/08 00:51:01;;;;;;;;;;;10.90;99.90;;;;;;5044465;28;20447;-75
2022/11/08 00:53:26;;;;;;;;;;;10.90;99.90;;;;;;5052956;28;19999;-75
2022/11/08 00:56:02;;;;;;;;;;;10.90;99.90;;;;;;5046095;28;20007;-74
2022/11/08 00:58:27;;;;;;;;;;;11.10;99.90;;;;;;5052736;28;20376;-74
2022/11/08 01:00:53;;;;;;;;;;;11.10;99.90;;;;;;5048999;28;19921;-75
2022/11/08 01:03:18;;;;;;;;;;;11.10;99.90;;;;;;5047249;28;20375;-74
2022/11/08 01:05:44;;;;;;;;;;;11.10;99.90;;;;;;5049754;28;19975;-75
2022/11/08 01:08:10;;;;;;;;;;;11.20;99.90;;;;;;5050037;28;20008;-74
2022/11/08 01:10:36;;;;;;;;;;;11.10;99.90;;;;;;5037676;28;20485;-75
2022/11/08 01:13:01;;;;;;;;;;;11.10;99.90;;;;;;5045702;28;19924;-75
2022/11/08 01:15:27;;;;;;;;;;;11.10;99.90;;;;;;5044191;28;19970;-75
2022/11/08 01:17:53;;;;;;;;;;;11.00;99.90;;;;;;5048576;28;19923;-76
2022/11/08 01:20:18;;;;;;;;;;;11.00;99.90;;;;;;5046507;28;19925;-76
2022/11/08 01:22:43;;;;;;;;;;;10.90;99.90;;;;;;5046347;28;20449;-76
2022/11/08 01:25:09;;;;;;;;;;;10.90;99.90;;;;;;5041932;28;19913;-76
2022/11/08 01:27:34;;;;;;;;;;;10.90;99.90;;;;;;5044923;28;19921;-75
2022/11/08 01:30:00;;;;;;;;;;;10.80;99.90;;;;;;5044267;28;19920;-76
2022/11/08 01:32:28;;;;;;;;;;;10.70;99.90;;;;;;5043711;28;19975;-76
2022/11/08 01:34:53;;;;;;;;;;;10.70;99.90;;;;;;5045990;28;20483;-76
2022/11/08 01:37:19;;;;;;;;;;;10.70;99.90;;;;;;5052480;28;19921;-76
2022/11/08 01:39:44;;;;;;;;;;;10.80;99.90;;;;;;5054639;28;19912;-76
2022/11/08 01:42:10;;;;;;;;;;;10.70;99.90;;;;;;5026684;28;19931;-76
2022/11/08 01:44:55;;;;;;;;;;;10.70;99.90;;;;;;5057584;28;19966;-76
2022/11/08 01:47:30;;;;;;;;;;;10.70;99.90;;;;;;5041401;28;19917;-75
2022/11/08 01:49:57;;;;;;;;;;;10.70;99.90;;;;;;5039153;28;19925;-76
2022/11/08 01:52:34;;;;;;;;;;;10.70;99.90;;;;;;5049094;28;19923;-75
2022/11/08 01:55:02;;;;;;;;;;;10.90;99.90;;;;;;5053065;28;20282;-76
2022/11/08 01:57:31;;;;;;;;;;;11.10;99.90;;;;;;5048804;28;20043;-76
2022/11/08 01:59:57;;;;;;;;;;;11.20;99.90;;;;;;5047095;28;19921;-76
2022/11/08 02:02:36;;;;;;;;;;;11.30;99.90;;;;;;5052353;28;19974;-76
2022/11/08 02:05:02;;;;;;;;;;;11.40;99.90;;;;;;5045270;28;19920;-76
2022/11/08 02:07:29;;;;;;;;;;;11.50;99.90;;;;;;5042289;28;20856;-76
2022/11/08 02:09:56;;;;;;;;;;;11.50;99.90;;;;;;5046339;28;19936;-76
2022/11/08 02:12:22;;;;;;;;;;;11.50;99.90;;;;;;5044759;28;19920;-76
2022/11/08 02:14:47;;;;;;;;;;;11.50;99.90;;;;;;5044902;28;20442;-76
2022/11/08 02:17:13;;;;;;;;;;;11.40;99.90;;;;;;5042287;28;20423;-75
2022/11/08 02:19:43;;;;;;;;;;;11.40;99.90;;;;;;5046634;28;19912;-76
2022/11/08 02:22:12;;;;;;;;;;;11.30;99.90;;;;;;5044132;28;19927;-76
2022/11/08 02:24:38;;;;;;;;;;;11.20;99.90;;;;;;5047306;28;20671;-76
2022/11/08 02:27:04;;;;;;;;;;;11.10;99.90;;;;;;5035487;28;19920;-76
2022/11/08 02:29:33;;;;;;;;;;;11.00;99.90;;;;;;5042076;28;19913;-76
2022/11/08 02:31:59;;;;;;;;;;;11.10;99.90;;;;;;5037015;28;19913;-76
2022/11/08 02:34:30;;;;;;;;;;;11.20;99.90;;;;;;5050392;28;19920;-76
2022/11/08 02:36:55;;;;;;;;;;;11.20;99.90;;;;;;5043070;28;20311;-75
2022/11/08 02:39:21;;;;;;;;;;;11.30;99.90;;;;;;5038980;28;19919;-76
2022/11/08 02:41:46;;;;;;;;;;;11.40;99.90;;;;;;5047854;28;20047;-75
2022/11/08 02:44:12;;;;;;;;;;;11.40;99.90;;;;;;5049632;28;19952;-76
2022/11/08 02:46:37;;;;;;;;;;;11.30;99.90;;;;;;5043858;28;20405;-76
2022/11/08 02:49:02;;;;;;;;;;;11.30;99.90;;;;;;5054393;28;19920;-76
2022/11/08 02:51:28;;;;;;;;;;;11.10;99.90;;;;;;5047425;28;20290;-76
2022/11/08 02:53:53;;;;;;;;;;;11.00;99.90;;;;;;5048575;28;19935;-76
2022/11/08 02:56:19;;;;;;;;;;;11.00;99.90;;;;;;5044968;28;19917;-76
2022/11/08 02:58:44;;;;;;;;;;;10.80;99.90;;;;;;5044941;28;20290;-77
2022/11/08 03:01:09;;;;;;;;;;;10.80;99.90;;;;;;5043787;28;19916;-76
2022/11/08 03:03:35;;;;;;;;;;;10.70;99.90;;;;;;5045007;28;20291;-76
2022/11/08 03:06:00;;;;;;;;;;;10.70;99.90;;;;;;5046296;28;19928;-76
2022/11/08 03:08:26;;;;;;;;;;;10.70;99.90;;;;;;5045249;28;19913;-76
2022/11/08 03:10:51;;;;;;;;;;;10.70;99.90;;;;;;5049830;28;19935;-76
2022/11/08 03:13:16;;;;;;;;;;;10.70;99.90;;;;;;5048669;28;20334;-75
2022/11/08 03:15:42;;;;;;;;;;;10.90;99.90;;;;;;5037238;28;19935;-76
2022/11/08 03:18:07;;;;;;;;;;;11.00;99.90;;;;;;5044608;28;19956;-76
2022/11/08 03:20:33;;;;;;;;;;;11.10;99.90;;;;;;5037092;28;19924;-76
2022/11/08 03:22:59;;;;;;;;;;;11.10;99.90;;;;;;5044197;28;20298;-76
2022/11/08 03:25:24;;;;;;;;;;;11.20;99.90;;;;;;5046846;28;20604;-75
2022/11/08 03:27:50;;;;;;;;;;;11.20;99.90;;;;;;5043996;28;19913;-76
2022/11/08 03:30:15;;;;;;;;;;;11.20;99.90;;;;;;5048403;28;20172;-76
2022/11/08 03:32:42;;;;;;;;;;;11.10;99.90;;;;;;5044170;28;19917;-75
2022/11/08 03:35:08;;;;;;;;;;;11.10;99.90;;;;;;5042524;28;19960;-75
2022/11/08 03:37:33;;;;;;;;;;;11.20;99.90;;;;;;5045844;28;19955;-76
2022/11/08 03:39:58;;;;;;;;;;;11.20;99.90;;;;;;5044293;28;20311;-76
2022/11/08 03:42:24;;;;;;;;;;;11.20;99.90;;;;;;5039706;28;20631;-75
2022/11/08 03:44:49;;;;;;;;;;;11.10;99.90;;;;;;5049856;28;19912;-76
2022/11/08 03:47:24;;;;;;;;;;;11.10;99.90;;;;;;5042890;28;19920;-75
2022/11/08 03:49:49;;;;;;;;;;;10.80;99.90;;;;;;5042266;28;20413;-76
2022/11/08 03:52:14;;;;;;;;;;;10.70;99.90;;;;;;5040032;28;19952;-76
2022/11/08 03:54:40;;;;;;;;;;;10.50;99.90;;;;;;5035139;28;19913;-76
2022/11/08 03:57:05;;;;;;;;;;;10.40;99.90;;;;;;5043211;28;19913;-76
2022/11/08 03:59:31;;;;;;;;;;;10.40;99.90;;;;;;5045270;28;20284;-76
2022/11/08 04:01:56;;;;;;;;;;;10.40;99.90;;;;;;5038791;28;19935;-75
2022/11/08 04:04:21;;;;;;;;;;;10.30;99.90;;;;;;5040543;28;19913;-76
2022/11/08 04:06:47;;;;;;;;;;;10.40;99.90;;;;;;5051524;28;19954;-76
2022/11/08 04:09:12;;;;;;;;;;;10.30;99.90;;;;;;5047588;28;19913;-76
2022/11/08 04:17:09;;;;;;;;;;;10.10;99.90;;;;;;5044671;28;19966;-76
2022/11/08 04:22:19;;;;;;;;;;;10.10;99.90;;;;;;5040949;28;19931;-76
2022/11/08 04:24:44;;;;;;;;;;;10.00;99.90;;;;;;5036759;28;20353;-76
2022/11/08 04:27:10;;;;;;;;;;;10.00;99.90;;;;;;5048544;28;20451;-76
2022/11/08 04:29:35;;;;;;;;;;;9.90;99.90;;;;;;5045365;28;20786;-75
2022/11/08 04:32:00;;;;;;;;;;;9.90;99.90;;;;;;5050484;28;19967;-75
2022/11/08 04:34:26;;;;;;;;;;;10.00;99.90;;;;;;5055153;28;20126;-76
2022/11/08 04:36:51;;;;;;;;;;;9.90;99.90;;;;;;5046339;28;19913;-76
2022/11/08 04:39:17;;;;;;;;;;;9.90;99.90;;;;;;5057640;28;20325;-75
2022/11/08 04:41:42;;;;;;;;;;;9.90;99.90;;;;;;5041933;28;19944;-76
2022/11/08 04:44:08;;;;;;;;;;;9.90;99.90;;;;;;5046553;28;20260;-76
2022/11/08 04:46:33;;;;;;;;;;;9.80;99.90;;;;;;5046090;28;19987;-76
2022/11/08 04:48:59;;;;;;;;;;;9.70;99.90;;;;;;5054592;28;19916;-76
2022/11/08 04:51:26;;;;;;;;;;;9.80;99.90;;;;;;5041432;28;20287;-76
2022/11/08 04:53:52;;;;;;;;;;;9.70;99.90;;;;;;5051495;28;19913;-76
2022/11/08 04:56:18;;;;;;;;;;;9.70;99.90;;;;;;5044197;28;19920;-76
2022/11/08 04:58:47;;;;;;;;;;;9.60;99.90;;;;;;5047616;28;19920;-75
2022/11/08 05:01:14;;;;;;;;;;;9.60;99.90;;;;;;5048169;28;19925;-76
2022/11/08 05:03:40;;;;;;;;;;;9.70;99.90;;;;;;5046003;28;19913;-76
2022/11/08 05:06:09;;;;;;;;;;;9.90;99.90;;;;;;5045760;28;20388;-75
2022/11/08 05:08:35;;;;;;;;;;;9.80;99.90;;;;;;5047786;28;20330;-76
2022/11/08 05:11:04;;;;;;;;;;;9.80;99.90;;;;;;5043894;28;19947;-75
2022/11/08 05:13:30;;;;;;;;;;;9.80;99.90;;;;;;5043933;28;20368;-77
2022/11/08 05:16:03;;;;;;;;;;;9.80;99.90;;;;;;5043874;28;20011;-78
2022/11/08 05:18:30;;;;;;;;;;;9.70;99.90;;;;;;5042937;28;19913;-76
2022/11/08 05:23:40;;;;;;;;;;;9.70;99.90;;;;;;5046944;28;19935;-77
2022/11/08 05:26:05;;;;;;;;;;;9.60;99.90;;;;;;5049770;28;19912;-77
2022/11/08 05:28:30;;;;;;;;;;;9.60;99.90;;;;;;5047399;28;20003;-77
2022/11/08 05:30:56;;;;;;;;;;;9.50;99.90;;;;;;5044541;28;19935;-77
2022/11/08 05:33:22;;;;;;;;;;;9.60;99.90;;;;;;5041590;28;20363;-77
2022/11/08 05:35:48;;;;;;;;;;;9.60;99.90;;;;;;5048214;28;19964;-76
2022/11/08 05:38:13;;;;;;;;;;;9.50;99.90;;;;;;5045968;28;19912;-77
2022/11/08 05:40:39;;;;;;;;;;;9.50;99.90;;;;;;5050182;28;19917;-77
2022/11/08 05:43:04;;;;;;;;;;;9.50;99.90;;;;;;5049665;28;19909;-77
2022/11/08 05:45:29;;;;;;;;;;;9.40;99.90;;;;;;5040728;28;19916;-77
2022/11/08 05:47:56;;;;;;;;;;;9.40;99.90;;;;;;5046997;28;19919;-76
2022/11/08 05:50:22;;;;;;;;;;;9.30;99.90;;;;;;5047530;28;19913;-76
2022/11/08 05:52:48;;;;;;;;;;;9.20;99.90;;;;;;5045437;28;20472;-76
2022/11/08 05:55:13;;;;;;;;;;;9.40;99.90;;;;;;5045948;28;19916;-76
2022/11/08 05:57:42;;;;;;;;;;;9.40;99.90;;;;;;5048571;28;19916;-75
2022/11/08 06:00:10;;;;;;;;;;;9.30;99.90;;;;;;5047567;28;19996;-75
2022/11/08 06:02:35;;;;;;;;;;;9.40;99.90;;;;;;5045752;28;20208;-76
2022/11/08 06:05:01;;;;;;;;;;;9.40;99.90;;;;;;5047108;28;19963;-76
2022/11/08 06:07:27;;;;;;;;;;;9.50;99.90;;;;;;5048862;28;19919;-75
2022/11/08 06:09:55;;;;;;;;;;;9.50;99.90;;;;;;5046527;28;19913;-75
2022/11/08 06:12:20;;;;;;;;;;;9.50;99.90;;;;;;5040603;28;20355;-75
2022/11/08 06:14:46;;;;;;;;;;;9.60;99.90;;;;;;5047070;28;19912;-75
2022/11/08 06:17:11;;;;;;;;;;;9.60;99.90;;;;;;5047721;28;20055;-75
2022/11/08 06:19:46;;;;;;;;;;;9.40;99.90;;;;;;5048295;28;19920;-76
2022/11/08 06:22:11;;;;;;;;;;;9.40;99.90;;;;;;5050994;28;20488;-76
2022/11/08 06:24:36;;;;;;;;;;;9.30;99.90;;;;;;5049317;28;20343;-75
2022/11/08 06:27:02;;;;;;;;;;;9.30;99.90;;;;;;5054642;28;20531;-76
2022/11/08 06:29:27;;;;;;;;;;;9.40;99.90;;;;;;5048073;28;19913;-75
2022/11/08 06:31:53;;;;;;;;;;;9.40;99.90;;;;;;5048708;28;19931;-76
2022/11/08 06:34:18;;;;;;;;;;;9.30;99.90;;;;;;5046130;28;19919;-76
2022/11/08 06:36:44;;;;;;;;;;;9.40;99.90;;;;;;5037292;28;19928;-75
2022/11/08 06:39:09;;;;;;;;;;;9.50;99.90;;;;;;5046465;28;19946;-76
2022/11/08 06:41:35;;;;;;;;;;;9.40;99.90;;;;;;5045679;28;19920;-76
2022/11/08 06:44:00;;;;;;;;;;;9.40;99.90;;;;;;5042688;28;19914;-75
2022/11/08 06:46:25;;;;;;;;;;;9.50;99.90;;;;;;5036962;28;20360;-76
2022/11/08 06:48:51;;;;;;;;;;;9.50;99.90;;;;;;5045129;28;19912;-76
2022/11/08 06:51:16;;;;;;;;;;;9.50;99.90;;;;;;5038886;28;20407;-76
2022/11/08 06:53:42;;;;;;;;;;;9.40;99.90;;;;;;5039971;28;19913;-76
2022/11/08 06:56:08;;;;;;;;;;;9.40;99.90;;;;;;5047125;28;19915;-76
2022/11/08 06:58:33;;;;;;;;;;;9.30;99.90;;;;;;5049643;28;20007;-76
2022/11/08 07:01:01;;;;;;;;;;;9.30;99.90;;;;;;5042903;28;19921;-76
2022/11/08 07:03:27;;;;;;;;;;;9.30;99.90;;;;;;5038310;28;20484;-76
2022/11/08 07:05:52;;;;;;;;;;;9.40;99.90;;;;;;5034394;28;19917;-76
2022/11/08 07:08:18;;;;;;;;;;;9.50;99.90;;;;;;5037081;28;19920;-76
2022/11/08 07:10:43;;;;;;;;;;;9.40;99.90;;;;;;5028853;28;19920;-76
2022/11/08 07:13:10;;;;;;;;;;;9.40;99.90;;;;;;5037380;28;19937;-76
2022/11/08 07:15:36;;;;;;;;;;;9.50;99.90;;;;;;5038750;28;19916;-76
2022/11/08 07:18:02;;;;;;;;;;;9.60;99.90;;;;;;5042694;28;19919;-74
2022/11/08 07:20:27;;;;;;;;;;;9.60;99.90;;;;;;5044970;28;19974;-75
2022/11/08 07:22:54;;;;;;;;;;;9.70;99.90;;;;;;5038737;28;19924;-75
2022/11/08 07:25:19;;;;;;;;;;;9.70;99.90;;;;;;5040106;28;20391;-75
2022/11/08 07:27:44;;;;;;;;;;;9.70;99.90;;;;;;5044757;28;20134;-75
2022/11/08 07:30:10;;;;;;;;;;;9.70;99.90;;;;;;5046797;28;20034;-75
2022/11/08 07:32:35;;;;;;;;;;;9.70;99.90;;;;;;5044417;28;19924;-74
2022/11/08 07:35:01;;;;;;;;;;;9.80;99.90;;;;;;5044857;28;20249;-75
2022/11/08 07:37:26;;;;;;;;;;;9.80;99.90;;;;;;5046665;28;19963;-75
2022/11/08 07:39:52;;;;;;;;;;;9.80;99.90;;;;;;5045660;28;20002;-76
2022/11/08 07:42:17;;;;;;;;;;;9.90;99.90;;;;;;5030289;28;19935;-75
2022/11/08 07:44:42;;;;;;;;;;;9.90;99.90;;;;;;5043695;28;19917;-75
2022/11/08 07:47:08;;;;;;;;;;;9.90;99.90;;;;;;5045050;28;19908;-75
2022/11/08 07:49:34;;;;;;;;;;;10.00;99.90;;;;;;5039444;28;19925;-75
2022/11/08 07:52:00;;;;;;;;;;;10.10;99.90;;;;;;5041263;28;19916;-74
2022/11/08 07:54:25;;;;;;;;;;;10.30;99.90;;;;;;5046164;28;19908;-75
2022/11/08 07:56:50;;;;;;;;;;;10.30;99.90;;;;;;5042514;28;20271;-75
2022/11/08 07:59:16;;;;;;;;;;;10.40;99.90;;;;;;5045254;28;19955;-75
2022/11/08 08:01:41;;;;;;;;;;;10.40;99.90;;;;;;5045869;28;19925;-75
2022/11/08 08:04:08;;;;;;;;;;;10.40;99.90;;;;;;5049478;28;19952;-75
2022/11/08 08:06:33;;;;;;;;;;;10.50;99.90;;;;;;5046710;28;19913;-75
2022/11/08 08:08:59;;;;;;;;;;;10.50;99.90;;;;;;5040576;28;19920;-75
2022/11/08 08:11:24;;;;;;;;;;;10.70;99.90;;;;;;5044577;28;19908;-75
2022/11/08 08:13:50;;;;;;;;;;;10.80;99.90;;;;;;5050293;28;19913;-74
2022/11/08 08:16:15;;;;;;;;;;;10.90;99.90;;;;;;5046187;28;19992;-75
2022/11/08 08:18:40;;;;;;;;;;;11.00;99.90;;;;;;5038138;28;19921;-75
2022/11/08 08:21:06;;;;;;;;;;;11.10;99.90;;;;;;5049735;28;19928;-75
2022/11/08 08:23:31;;;;;;;;;;;11.10;99.90;;;;;;5042755;28;19935;-75
2022/11/08 08:25:57;;;;;;;;;;;11.20;99.90;;;;;;5050286;28;20263;-75
2022/11/08 08:28:22;;;;;;;;;;;11.30;99.90;;;;;;5041294;28;19909;-75
2022/11/08 08:30:48;;;;;;;;;;;11.40;99.90;;;;;;5040407;28;19920;-73
2022/11/08 08:33:14;;;;;;;;;;;11.50;99.90;;;;;;5038827;28;19921;-74
2022/11/08 08:35:42;;;;;;;;;;;11.50;99.90;;;;;;5038055;28;19917;-75
2022/11/08 08:38:08;;;;;;;;;;;11.70;99.90;;;;;;5050654;28;19952;-75
2022/11/08 08:40:34;;;;;;;;;;;11.80;99.90;;;;;;5045716;28;19971;-76
2022/11/08 08:42:59;;;;;;;;;;;12.00;99.90;;;;;;5038526;28;19917;-75
2022/11/08 08:45:28;;;;;;;;;;;12.00;99.90;;;;;;5045256;28;20012;-74
2022/11/08 08:47:54;;;;;;;;;;;12.20;99.90;;;;;;5048099;28;19923;-74
2022/11/08 08:50:20;;;;;;;;;;;12.30;99.90;;;;;;5045171;28;19913;-74
2022/11/08 08:52:46;;;;;;;;;;;12.30;99.90;;;;;;5045574;28;20024;-74
2022/11/08 08:55:12;;;;;;;;;;;12.40;99.90;;;;;;5040998;28;20023;-73
2022/11/08 08:57:37;;;;;;;;;;;12.50;99.90;;;;;;5043341;28;20006;-74
2022/11/08 09:00:03;;;;;;;;;;;12.50;99.90;;;;;;5041569;28;19932;-73
2022/11/08 09:02:28;;;;;;;;;;;12.60;99.90;;;;;;5044906;28;20413;-74
2022/11/08 09:04:53;;;;;;;;;;;12.70;99.90;;;;;;5031901;28;19921;-75
2022/11/08 09:07:19;;;;;;;;;;;12.80;99.90;;;;;;5040917;28;20370;-73
2022/11/08 09:09:44;;;;;;;;;;;12.80;99.90;;;;;;5036740;28;19920;-75
2022/11/08 09:12:10;;;;;;;;;;;13.00;99.90;;;;;;5034853;28;19928;-75
2022/11/08 09:14:35;;;;;;;;;;;13.00;99.90;;;;;;5034989;28;19967;-74
2022/11/08 09:17:00;;;;;;;;;;;13.10;99.90;;;;;;5036939;28;19917;-74
2022/11/08 09:19:26;;;;;;;;;;;13.20;99.90;;;;;;5035966;28;20596;-75
2022/11/08 09:21:51;;;;;;;;;;;13.10;99.90;;;;;;5038033;28;20345;-81
2022/11/08 09:24:17;;;;;;;;;;;13.30;99.90;;;;;;5042721;28;19998;-80
2022/11/08 09:26:42;;;;;;;;;;;13.40;99.90;;;;;;5044866;28;20531;-77
2022/11/08 09:29:07;;;;;;;;;;;13.40;99.90;;;;;;5039107;28;19913;-79
2022/11/08 09:31:33;;;;;;;;;;;13.40;99.90;;;;;;5044912;28;19951;-79
2022/11/08 09:33:58;;;;;;;;;;;13.50;99.90;;;;;;5049672;28;19996;-80
2022/11/08 09:36:24;;;;;;;;;;;13.60;99.90;;;;;;5042310;28;19916;-81
2022/11/08 09:38:49;;;;;;;;;;;13.70;99.90;;;;;;5046037;28;19917;-80
2022/11/08 09:41:15;;;;;;;;;;;13.90;99.90;;;;;;5048381;28;20325;-80
2022/11/08 09:43:51;;;;;;;;;;;14.00;99.90;;;;;;5047376;28;19924;-79
2022/11/08 09:46:29;;;;;;;;;;;14.10;99.90;;;;;;5043279;28;19917;-81
2022/11/08 09:48:55;;;;;;;;;;;14.20;99.90;;;;;;5049436;28;19920;-80
2022/11/08 09:51:22;;;;;;;;;;;14.30;99.90;;;;;;5040380;28;19913;-78
2022/11/08 09:53:52;;;;;;;;;;;14.50;99.90;;;;;;5038782;28;19917;-76
2022/11/08 09:56:22;;;;;;;;;;;14.60;99.90;;;;;;5047254;28;19916;-76
2022/11/08 09:58:50;;;;;;;;;;;14.70;99.90;;;;;;5034996;28;19955;-76
2022/11/08 10:01:16;;;;;;;;;;;14.90;99.90;;;;;;5032997;28;19956;-76
2022/11/08 10:03:44;;;;;;;;;;;15.10;99.90;;;;;;5037193;28;19964;-77
2022/11/08 10:06:17;;;;;;;;;;;15.20;99.90;;;;;;5042519;28;19909;-78
2022/11/08 10:08:54;;;;;;;;;;;15.40;99.90;;;;;;5041353;28;19913;-76
2022/11/08 10:11:26;;;;;;;;;;;15.40;99.90;;;;;;5040397;28;19917;-76
2022/11/08 10:14:01;;;;;;;;;;;15.40;99.90;;;;;;5043418;28;19921;-77
2022/11/08 10:16:35;;;;;;;;;;;15.60;99.90;;;;;;5037141;28;19909;-76
2022/11/08 10:19:04;;;;;;;;;;;15.50;99.90;;;;;;5036912;28;19913;-77
2022/11/08 10:21:47;;;;;;;;;;;15.50;99.90;;;;;;5048240;28;20488;-77
2022/11/08 10:24:34;;;;;;;;;;;15.60;99.90;;;;;;5033861;28;19920;-76
2022/11/08 10:26:59;;;;;;;;;;;15.50;99.90;;;;;;5037819;28;19917;-77
2022/11/08 10:29:27;;;;;;;;;;;15.40;99.90;;;;;;5046048;28;19913;-76
2022/11/08 10:32:26;;;;;;;;;;;15.60;99.90;;;;;;5041729;28;20371;-77
2022/11/08 10:34:56;;;;;;;;;;;16.00;99.90;;;;;;5005252;28;19948;-77
2022/11/08 10:37:23;;;;;;;;;;;16.50;99.90;;;;;;5035704;28;19921;-77
2022/11/08 10:39:57;;;;;;;;;;;16.50;99.90;;;;;;5032994;28;20256;-76
2022/11/08 10:42:29;;;;;;;;;;;17.00;99.60;;;;;;5046380;28;19913;-76
2022/11/08 10:44:54;;;;;;;;;;;17.60;97.50;;;;;;5043270;28;20745;-75
2022/11/08 10:47:22;;;;;;;;;;;17.80;95.50;;;;;;5040969;28;20344;-75
2022/11/08 10:49:47;;;;;;;;;;;18.40;93.60;;;;;;5033366;28;19916;-75
2022/11/08 10:52:23;;;;;;;;;;;18.70;92.10;;;;;;5037405;28;20279;-77
2022/11/08 10:54:49;;;;;;;;;;;19.40;90.30;;;;;;5032421;28;20556;-76
2022/11/08 10:57:23;;;;;;;;;;;19.80;86.00;;;;;;5037626;28;19916;-76
2022/11/08 10:59:49;;;;;;;;;;;19.80;85.90;;;;;;5040176;28;20437;-77
2022/11/08 11:02:16;;;;;;;;;;;20.40;83.20;;;;;;5039286;28;19932;-76
2022/11/08 11:04:42;;;;;;;;;;;20.00;83.20;;;;;;5030934;28;19913;-76
2022/11/08 11:07:25;;;;;;;;;;;19.40;85.00;;;;;;5038493;28;19917;-77
2022/11/08 11:09:50;;;;;;;;;;;19.00;87.10;;;;;;5044279;28;19956;-77
2022/11/08 11:12:16;;;;;;;;;;;19.30;87.30;;;;;;5040562;28;19948;-76
2022/11/08 11:14:41;;;;;;;;;;;20.70;81.20;;;;;;5040801;28;20000;-77
2022/11/08 11:17:14;;;;;;;;;;;22.50;75.70;;;;;;5041033;28;19916;-76
2022/11/08 11:19:41;;;;;;;;;;;24.10;67.60;;;;;;5045506;28;20050;-77
2022/11/08 11:22:07;;;;;;;;;;;24.70;63.00;;;;;;5043992;28;19924;-77
2022/11/08 11:24:34;;;;;;;;;;;26.90;58.00;;;;;;5027556;28;19917;-76
2022/11/08 11:27:04;;;;;;;;;;;26.90;55.60;;;;;;5042458;28;19917;-77
2022/11/08 11:29:31;;;;;;;;;;;27.10;54.50;;;;;;5037828;28;19913;-77
2022/11/08 11:31:56;;;;;;;;;;;27.40;53.70;;;;;;5041246;28;20530;-77
2022/11/08 11:34:33;;;;;;;;;;;29.00;51.30;;;;;;5038353;28;20088;-76
2022/11/08 11:37:05;;;;;;;;;;;28.40;49.20;;;;;;5037827;28;19913;-77
2022/11/08 11:39:34;;;;;;;;;;;27.80;51.20;;;;;;5047946;28;19948;-77
2022/11/08 11:42:18;;;;;;;;;;;28.00;50.60;;;;;;5062969;28;19920;-76
2022/11/08 11:45:02;;;;;;;;;;;29.60;48.40;;;;;;5050469;28;19916;-76
2022/11/08 11:47:34;;;;;;;;;;;29.80;47.20;;;;;;5047983;28;19958;-76
2022/11/08 11:50:01;;;;;;;;;;;29.40;47.90;;;;;;5050672;28;20259;-76
2022/11/08 11:52:27;;;;;;;;;;;28.10;47.60;;;;;;5050444;28;19917;-77
2022/11/08 11:54:52;;;;;;;;;;;26.50;50.70;;;;;;5051124;28;19935;-77
2022/11/08 11:57:33;;;;;;;;;;;27.10;50.80;;;;;;5048610;28;20293;-79
2022/11/08 12:00:03;;;;;;;;;;;27.00;50.60;;;;;;5049171;28;19924;-75
2022/11/08 12:02:38;;;;;;;;;;;26.50;51.20;;;;;;5058271;28;19916;-77
2022/11/08 12:05:22;;;;;;;;;;;26.80;50.40;;;;;;5052353;28;19923;-76
2022/11/08 12:07:52;;;;;;;;;;;27.60;50.20;;;;;;5045623;28;19967;-77
2022/11/08 12:10:28;;;;;;;;;;;28.00;49.00;;;;;;5046316;28;19917;-76
2022/11/08 12:13:07;;;;;;;;;;;27.40;49.60;;;;;;5049836;28;19936;-76
2022/11/08 12:15:46;;;;;;;;;;;27.90;48.80;;;;;;5050388;28;19999;-77
2022/11/08 12:18:19;;;;;;;;;;;28.40;48.90;;;;;;5050264;28;19913;-83
2022/11/08 12:20:44;;;;;;;;;;;27.80;48.80;;;;;;5055059;28;19923;-83
2022/11/08 12:23:10;;;;;;;;;;;26.80;49.50;;;;;;5049612;28;19913;-80
2022/11/08 12:25:45;;;;;;;;;;;26.80;50.20;;;;;;5051516;28;19952;-82
2022/11/08 12:28:16;;;;;;;;;;;26.80;50.10;;;;;;5049245;28;19912;-80
2022/11/08 12:30:42;;;;;;;;;;;26.40;50.50;;;;;;5044823;28;20390;-81
2022/11/08 12:33:14;;;;;;;;;;;25.40;52.80;;;;;;5041482;28;19917;-81
2022/11/08 12:36:01;;;;;;;;;;;24.70;55.10;;;;;;5048305;28;19943;-79
2022/11/08 12:38:29;;;;;;;;;;;24.40;55.50;;;;;;5055754;28;20435;-81
2022/11/08 12:41:04;;;;;;;;;;;24.50;55.40;;;;;;5055077;28;20330;-78
2022/11/08 12:43:49;;;;;;;;;;;24.50;54.70;;;;;;5041309;28;19913;-80
2022/11/08 12:46:17;;;;;;;;;;;24.70;54.50;;;;;;5059213;28;19920;-80
2022/11/08 12:48:58;;;;;;;;;;;26.20;52.20;;;;;;5046872;28;19936;-81
2022/11/08 12:51:27;;;;;;;;;;;27.20;50.40;;;;;;5047771;28;19908;-81
2022/11/08 12:54:03;;;;;;;;;;;28.10;48.40;;;;;;5045115;28;20397;-83
2022/11/08 12:56:41;;;;;;;;;;;29.00;46.50;;;;;;5044019;28;19916;-79
2022/11/08 12:59:28;;;;;;;;;;;28.10;47.50;;;;;;5031994;28;19920;-79
2022/11/08 13:01:55;;;;;;;;;;;28.20;47.30;;;;;;5027240;28;19924;-79
2022/11/08 13:04:21;;;;;;;;;;;24.40;53.30;;;;;;5042239;28;19913;-82
2022/11/08 13:07:03;;;;;;;;;;;22.00;58.50;;;;;;5049247;28;19920;-79
2022/11/08 13:09:31;;;;;;;;;;;20.60;63.80;;;;;;5038698;28;20200;-78
2022/11/08 13:12:32;;;;;;;;;;;19.90;66.70;;;;;;5045304;28;19916;-78
2022/11/08 13:14:58;;;;;;;;;;;19.50;68.20;;;;;;5004102;28;20282;-79
2022/11/08 13:17:25;;;;;;;;;;;19.30;70.10;;;;;;5043930;28;19996;-80
2022/11/08 13:19:55;;;;;;;;;;;19.10;70.30;;;;;;5046831;28;19920;-80
2022/11/08 13:22:27;;;;;;;;;;;18.40;72.90;;;;;;5046161;28;20059;-78
2022/11/08 13:24:56;;;;;;;;;;;18.20;73.80;;;;;;5047695;28;20615;-82
2022/11/08 13:27:22;;;;;;;;;;;18.20;73.60;;;;;;5042236;28;19963;-81
2022/11/08 13:29:48;;;;;;;;;;;18.40;74.10;;;;;;5040657;28;20372;-81
2022/11/08 13:32:21;;;;;;;;;;;18.60;72.90;;;;;;5040831;28;19947;-81
2022/11/08 13:35:06;;;;;;;;;;;18.50;73.20;;;;;;5036719;28;19912;-80
2022/11/08 13:37:47;;;;;;;;;;;18.50;73.90;;;;;;5041640;28;20351;-81
2022/11/08 13:40:20;;;;;;;;;;;18.30;74.90;;;;;;5037447;28;19917;-80
2022/11/08 13:42:48;;;;;;;;;;;18.10;75.50;;;;;;5035502;28;19924;-74
2022/11/08 13:45:20;;;;;;;;;;;18.00;75.10;;;;;;5039480;28;19935;-75
2022/11/08 13:47:48;;;;;;;;;;;18.10;76.40;;;;;;5036659;28;19928;-76
2022/11/08 13:50:32;;;;;;;;;;;18.20;75.60;;;;;;5037664;28;20440;-76
2022/11/08 13:53:23;;;;;;;;;;;18.20;75.40;;;;;;5038316;28;19957;-76
2022/11/08 13:56:06;;;;;;;;;;;18.20;76.10;;;;;;5038314;28;20535;-76
2022/11/08 13:58:42;;;;;;;;;;;17.90;76.00;;;;;;5020351;28;19921;-76
2022/11/08 14:01:17;;;;;;;;;;;17.70;77.20;;;;;;5033445;28;19932;-75
2022/11/08 14:03:46;;;;;;;;;;;17.50;78.40;;;;;;5039103;28;19912;-76
2022/11/08 14:06:12;;;;;;;;;;;17.40;79.80;;;;;;5034309;28;19917;-76
2022/11/08 14:08:37;;;;;;;;;;;17.20;80.90;;;;;;5037094;28;21133;-76
2022/11/08 14:11:06;;;;;;;;;;;17.20;81.70;;;;;;5035871;28;19971;-75
2022/11/08 14:13:47;;;;;;;;;;;17.20;81.90;;;;;;5034624;28;19921;-75
2022/11/08 14:16:19;;;;;;;;;;;17.20;82.20;;;;;;5036252;28;19928;-75
2022/11/08 14:18:47;;;;;;;;;;;17.50;81.50;;;;;;5037610;28;20383;-76
2022/11/08 14:21:17;;;;;;;;;;;17.50;81.20;;;;;;5038172;28;20362;-76
2022/11/08 14:23:43;;;;;;;;;;;17.30;82.80;;;;;;5037503;28;20018;-77
2022/11/08 14:26:22;;;;;;;;;;;17.60;82.30;;;;;;5036377;28;20055;-77
2022/11/08 14:28:48;;;;;;;;;;;17.60;81.90;;;;;;5037427;28;19955;-75
2022/11/08 14:31:22;;;;;;;;;;;17.20;83.30;;;;;;5038607;28;19913;-76
2022/11/08 14:33:48;;;;;;;;;;;16.90;85.20;;;;;;5037738;28;19921;-77
2022/11/08 14:36:14;;;;;;;;;;;16.80;86.40;;;;;;5036529;28;19919;-78
2022/11/08 14:38:58;;;;;;;;;;;16.60;87.50;;;;;;5037266;28;19917;-78
2022/11/08 14:41:25;;;;;;;;;;;16.50;88.60;;;;;;5038819;28;19962;-77
2022/11/08 14:43:52;;;;;;;;;;;16.30;90.00;;;;;;5038370;28;19921;-77
2022/11/08 14:46:25;;;;;;;;;;;16.20;90.40;;;;;;5037803;28;19975;-78